Time;durP1;ratioP1;P1;durP2;ratioP2;P2;SDS_P1;SDS_P2;PMS_P1;PMS_P2;Temp;Humidity;BMP_temperature;BMP_pressure;BME280_temperature;BME280_humidity;BME280_pressure;Samples;Min_cycle;Max_cycle;Signal;HPM_P1;HPM_P2
2022/03/10 00:01:09;;;;;;;19.17;10.63;;;0.60;75.80;;;;;;5053530;28;20139;-68
2022/03/10 00:03:35;;;;;;;21.58;10.52;;;0.60;75.80;;;;;;5058614;28;20455;-68
2022/03/10 00:06:00;;;;;;;21.92;10.32;;;0.60;75.60;;;;;;5053409;28;20055;-68
2022/03/10 00:08:26;;;;;;;20.77;10.60;;;0.60;75.90;;;;;;5040950;28;20033;-68
2022/03/10 00:10:51;;;;;;;18.33;9.43;;;0.60;75.60;;;;;;5048689;28;20127;-68
2022/03/10 00:13:17;;;;;;;20.02;9.88;;;0.60;75.40;;;;;;5060949;28;20101;-68
2022/03/10 00:15:42;;;;;;;22.77;10.90;;;0.60;75.40;;;;;;5041198;28;20033;-68
2022/03/10 00:18:08;;;;;;;23.02;11.07;;;0.60;75.30;;;;;;5054807;28;20052;-68
2022/03/10 00:20:33;;;;;;;22.38;10.13;;;0.60;75.60;;;;;;5041371;28;20528;-68
2022/03/10 00:22:59;;;;;;;23.52;11.35;;;0.60;75.60;;;;;;5051879;28;20060;-68
2022/03/10 00:25:25;;;;;;;22.17;11.23;;;0.60;75.30;;;;;;5060777;28;20668;-68
2022/03/10 00:27:51;;;;;;;21.25;11.43;;;0.60;75.70;;;;;;5057906;28;20040;-68
2022/03/10 00:30:17;;;;;;;20.02;10.50;;;0.60;75.30;;;;;;5058329;28;20117;-68
2022/03/10 00:32:50;;;;;;;20.10;10.68;;;0.60;75.40;;;;;;5055808;28;20119;-68
2022/03/10 00:35:18;;;;;;;23.50;11.00;;;0.60;75.80;;;;;;5051260;28;20036;-68
2022/03/10 00:37:44;;;;;;;22.38;10.73;;;0.60;76.10;;;;;;5047238;28;20117;-68
2022/03/10 00:40:11;;;;;;;23.20;11.20;;;0.50;76.30;;;;;;5059280;28;20044;-68
2022/03/10 00:42:38;;;;;;;21.25;11.48;;;0.50;76.50;;;;;;5058161;28;20047;-68
2022/03/10 00:45:04;;;;;;;24.27;12.02;;;0.40;76.20;;;;;;5041574;28;20119;-68
2022/03/10 00:47:31;;;;;;;20.00;10.70;;;0.30;76.30;;;;;;5033872;28;20049;-68
2022/03/10 00:49:56;;;;;;;19.35;9.85;;;0.30;76.90;;;;;;5032163;28;20362;-68
2022/03/10 00:52:22;;;;;;;21.42;11.10;;;0.30;77.20;;;;;;5065554;28;20037;-68
2022/03/10 00:54:47;;;;;;;20.52;10.85;;;0.30;77.40;;;;;;5059693;28;20067;-68
2022/03/10 00:57:13;;;;;;;21.00;10.50;;;0.20;77.40;;;;;;5064006;28;20143;-68
2022/03/10 00:59:38;;;;;;;20.75;10.13;;;0.20;77.50;;;;;;5051329;28;20059;-69
2022/03/10 01:02:04;;;;;;;18.00;10.23;;;0.20;77.90;;;;;;5032395;28;20053;-68
2022/03/10 01:04:29;;;;;;;20.92;10.90;;;0.20;78.20;;;;;;5054282;28;20059;-68
2022/03/10 01:06:55;;;;;;;19.35;10.07;;;0.10;77.70;;;;;;5049536;28;20128;-68
2022/03/10 01:09:20;;;;;;;21.27;11.20;;;0.10;77.90;;;;;;5060593;28;20423;-68
2022/03/10 01:11:46;;;;;;;20.15;11.05;;;0.10;78.30;;;;;;5051707;28;20160;-68
2022/03/10 01:14:11;;;;;;;21.70;10.52;;;0.00;78.20;;;;;;5051397;28;20087;-68
2022/03/10 01:16:37;;;;;;;20.02;10.23;;;-0.10;78.00;;;;;;5051147;28;20076;-69
2022/03/10 01:19:03;;;;;;;24.85;11.25;;;-0.20;79.00;;;;;;5064339;28;20059;-68
2022/03/10 01:21:29;;;;;;;21.90;10.95;;;-0.30;79.40;;;;;;5060134;28;20444;-68
2022/03/10 01:23:54;;;;;;;19.13;9.70;;;-0.30;79.80;;;;;;5053550;28;20076;-68
2022/03/10 01:26:20;;;;;;;20.52;11.13;;;-0.40;80.00;;;;;;5052261;28;20174;-68
2022/03/10 01:28:45;;;;;;;22.83;11.23;;;-0.40;80.00;;;;;;5033936;28;20051;-68
2022/03/10 01:31:11;;;;;;;24.38;12.27;;;-0.40;80.10;;;;;;5055947;28;20049;-68
2022/03/10 01:33:37;;;;;;;21.92;11.63;;;-0.50;80.10;;;;;;5048575;28;20029;-68
2022/03/10 01:36:03;;;;;;;21.20;11.40;;;-0.50;80.30;;;;;;5041929;28;20036;-68
2022/03/10 01:38:28;;;;;;;23.77;11.40;;;-0.50;80.60;;;;;;5053857;28;20029;-68
2022/03/10 01:40:54;;;;;;;25.17;12.35;;;-0.40;81.10;;;;;;5049265;28;20056;-68
2022/03/10 01:43:19;;;;;;;23.75;11.70;;;-0.30;81.20;;;;;;5061249;28;20044;-68
2022/03/10 01:45:45;;;;;;;23.95;11.63;;;-0.30;80.90;;;;;;5061707;28;20029;-68
2022/03/10 01:48:11;;;;;;;22.70;12.07;;;-0.30;80.70;;;;;;5054906;28;20395;-68
2022/03/10 01:50:36;;;;;;;23.00;11.75;;;-0.30;80.90;;;;;;5059815;28;20037;-68
2022/03/10 01:53:02;;;;;;;23.92;12.23;;;-0.20;80.70;;;;;;5056554;28;20044;-68
2022/03/10 01:55:29;;;;;;;26.30;12.23;;;-0.20;80.60;;;;;;5057223;28;20095;-68
2022/03/10 01:57:55;;;;;;;22.95;10.95;;;-0.10;80.30;;;;;;5059766;28;20044;-68
2022/03/10 02:00:20;;;;;;;21.77;11.15;;;-0.10;80.10;;;;;;5063289;28;20334;-68
2022/03/10 02:02:46;;;;;;;21.55;12.50;;;-0.10;79.90;;;;;;5067332;28;20040;-68
2022/03/10 02:05:11;;;;;;;25.10;11.65;;;-0.10;79.60;;;;;;5043637;28;20119;-68
2022/03/10 02:10:27;;;;;;;24.90;11.52;;;0.00;79.20;;;;;;5066488;28;20107;-68
2022/03/10 02:12:55;;;;;;;21.63;11.63;;;0.00;79.10;;;;;;5054539;28;20036;-68
2022/03/10 02:18:15;;;;;;;22.17;10.90;;;0.00;79.30;;;;;;5054824;28;20155;-68
2022/03/10 02:20:41;;;;;;;24.45;11.68;;;0.00;79.60;;;;;;5059179;28;20104;-68
2022/03/10 02:23:11;;;;;;;25.98;11.68;;;0.00;79.60;;;;;;5033558;28;20089;-68
2022/03/10 02:25:38;;;;;;;24.45;11.60;;;0.00;79.60;;;;;;5060021;28;20629;-68
2022/03/10 02:28:04;;;;;;;21.52;10.60;;;-0.10;79.60;;;;;;5067631;28;20052;-68
2022/03/10 02:30:31;;;;;;;25.60;11.85;;;-0.20;79.50;;;;;;5058761;28;20028;-68
2022/03/10 02:32:57;;;;;;;23.08;11.40;;;-0.20;79.50;;;;;;5040387;28;20059;-68
2022/03/10 02:35:23;;;;;;;24.40;12.30;;;-0.30;79.80;;;;;;5046542;28;20089;-68
2022/03/10 02:37:49;;;;;;;23.58;11.88;;;-0.30;79.70;;;;;;5055609;28;20041;-68
2022/03/10 02:40:14;;;;;;;19.20;11.95;;;-0.40;80.90;;;;;;5049447;28;20067;-68
2022/03/10 02:42:40;;;;;;;22.95;11.48;;;-0.30;80.60;;;;;;5038599;28;20145;-68
2022/03/10 02:45:07;;;;;;;46.30;14.15;;;-0.40;80.30;;;;;;5059483;28;20098;-69
2022/03/10 02:47:32;;;;;;;20.30;11.15;;;-0.40;80.60;;;;;;5058354;28;20491;-68
2022/03/10 02:49:58;;;;;;;22.83;11.45;;;-0.30;80.30;;;;;;5057973;28;20071;-68
2022/03/10 02:52:24;;;;;;;23.15;11.57;;;-0.30;80.00;;;;;;5060595;28;20043;-68
2022/03/10 02:54:50;;;;;;;22.45;11.50;;;-0.20;80.00;;;;;;5058952;28;20064;-67
2022/03/10 02:57:15;;;;;;;21.33;11.48;;;-0.20;79.90;;;;;;5056807;28;20056;-68
2022/03/10 02:59:42;;;;;;;20.88;10.73;;;-0.20;80.00;;;;;;5052203;28;20453;-68
2022/03/10 03:02:07;;;;;;;22.75;11.55;;;-0.30;80.10;;;;;;5042429;28;22022;-68
2022/03/10 03:04:33;;;;;;;22.35;12.18;;;-0.30;79.80;;;;;;5057036;28;20041;-68
2022/03/10 03:06:59;;;;;;;22.17;11.48;;;-0.40;79.90;;;;;;5048334;28;20110;-68
2022/03/10 03:09:24;;;;;;;23.05;11.20;;;-0.50;80.20;;;;;;5053222;28;20063;-70
2022/03/10 03:11:50;;;;;;;23.33;12.40;;;-0.50;80.20;;;;;;5057865;28;21009;-68
2022/03/10 03:14:16;;;;;;;23.95;11.43;;;-0.50;80.40;;;;;;5057681;28;20040;-68
2022/03/10 03:16:42;;;;;;;24.13;11.27;;;-0.50;81.10;;;;;;5053371;28;20072;-67
2022/03/10 03:19:07;;;;;;;21.25;10.85;;;-0.50;81.20;;;;;;5056575;28;20048;-68
2022/03/10 03:21:33;;;;;;;23.17;11.20;;;-0.50;81.10;;;;;;5057321;28;20037;-68
2022/03/10 03:23:58;;;;;;;24.23;11.82;;;-0.40;81.30;;;;;;5057668;28;20036;-68
2022/03/10 03:26:24;;;;;;;22.70;10.93;;;-0.50;81.40;;;;;;5068036;28;20049;-68
2022/03/10 03:28:49;;;;;;;25.88;11.90;;;-0.50;81.50;;;;;;5049167;28;20033;-68
2022/03/10 03:31:16;;;;;;;26.00;12.05;;;-0.60;81.50;;;;;;5059228;28;20037;-68
2022/03/10 03:33:42;;;;;;;24.88;12.43;;;-0.50;81.70;;;;;;5053705;28;20033;-68
2022/03/10 03:36:08;;;;;;;22.05;12.52;;;-0.60;81.40;;;;;;5056177;28;20487;-68
2022/03/10 03:38:34;;;;;;;23.02;11.40;;;-0.60;81.30;;;;;;5061678;28;20048;-68
2022/03/10 03:41:00;;;;;;;25.80;12.95;;;-0.60;81.30;;;;;;5061073;28;20086;-68
2022/03/10 03:43:25;;;;;;;25.40;12.68;;;-0.60;81.00;;;;;;5062775;28;20036;-68
2022/03/10 03:45:51;;;;;;;27.58;12.57;;;-0.60;81.50;;;;;;5066359;28;20032;-68
2022/03/10 03:48:16;;;;;;;22.48;11.68;;;-0.50;81.50;;;;;;5058345;28;20598;-68
2022/03/10 03:50:42;;;;;;;24.65;11.95;;;-0.50;81.40;;;;;;5046811;28;20063;-68
2022/03/10 03:53:07;;;;;;;27.58;12.32;;;-0.40;81.50;;;;;;5049038;28;20052;-68
2022/03/10 03:55:33;;;;;;;25.88;11.07;;;-0.40;81.30;;;;;;5057998;28;20039;-68
2022/03/10 03:57:58;;;;;;;20.65;12.10;;;-0.40;80.90;;;;;;5053067;28;20434;-68
2022/03/10 04:00:24;;;;;;;24.38;11.88;;;-0.50;80.80;;;;;;5053078;28;20050;-68
2022/03/10 04:02:49;;;;;;;21.40;10.85;;;-0.50;80.60;;;;;;5054636;28;20037;-68
2022/03/10 04:05:16;;;;;;;25.83;11.82;;;-0.60;80.70;;;;;;5063766;28;20510;-68
2022/03/10 04:07:42;;;;;;;24.42;11.95;;;-0.60;81.00;;;;;;5032151;28;21688;-68
2022/03/10 04:10:08;;;;;;;19.10;11.45;;;-0.70;81.20;;;;;;5067323;28;20074;-68
2022/03/10 04:12:35;;;;;;;21.75;12.10;;;-0.70;81.20;;;;;;5067757;28;20405;-68
2022/03/10 04:15:01;;;;;;;20.33;10.65;;;-0.80;81.40;;;;;;5044054;28;20563;-68
2022/03/10 04:17:27;;;;;;;23.80;12.52;;;-0.80;81.70;;;;;;5063459;28;20048;-67
2022/03/10 04:19:52;;;;;;;20.65;11.07;;;-0.80;81.70;;;;;;5053808;28;20032;-68
2022/03/10 04:22:18;;;;;;;22.75;11.48;;;-0.90;81.60;;;;;;5054246;28;20341;-68
2022/03/10 04:24:44;;;;;;;20.77;11.50;;;-0.90;81.70;;;;;;5048217;28;20037;-68
2022/03/10 04:27:10;;;;;;;24.00;12.18;;;-0.90;81.70;;;;;;5038582;28;20045;-68
2022/03/10 04:29:35;;;;;;;19.38;11.10;;;-0.90;81.70;;;;;;5059991;28;20045;-68
2022/03/10 04:32:01;;;;;;;19.95;10.68;;;-0.90;81.70;;;;;;5054538;28;20489;-68
2022/03/10 04:34:27;;;;;;;25.92;12.00;;;-0.80;82.20;;;;;;5058596;28;20488;-67
2022/03/10 04:36:52;;;;;;;24.13;13.20;;;-0.70;81.60;;;;;;5046121;28;20084;-68
2022/03/10 04:39:18;;;;;;;21.08;11.00;;;-0.70;81.40;;;;;;5060325;28;20055;-68
2022/03/10 04:41:43;;;;;;;22.67;11.57;;;-0.60;81.40;;;;;;5042116;28;20077;-68
2022/03/10 04:44:10;;;;;;;20.98;10.80;;;-0.50;81.00;;;;;;5067891;28;20040;-68
2022/03/10 04:46:36;;;;;;;20.08;11.00;;;-0.40;80.70;;;;;;5052985;28;20052;-68
2022/03/10 04:49:02;;;;;;;21.75;10.93;;;-0.20;80.00;;;;;;5043567;28;20041;-68
2022/03/10 04:51:28;;;;;;;20.02;10.38;;;-0.20;79.80;;;;;;5058166;28;20163;-68
2022/03/10 04:53:54;;;;;;;21.15;10.20;;;-0.20;79.40;;;;;;5058118;28;20435;-68
2022/03/10 04:56:20;;;;;;;21.70;10.60;;;-0.20;79.30;;;;;;5054599;28;20037;-68
2022/03/10 04:58:45;;;;;;;30.63;11.23;;;-0.10;79.20;;;;;;5044953;28;20032;-68
2022/03/10 05:01:12;;;;;;;23.73;11.95;;;-0.20;79.00;;;;;;5047810;28;20139;-68
2022/03/10 05:03:38;;;;;;;23.20;10.93;;;-0.10;79.10;;;;;;5049221;28;20043;-67
2022/03/10 05:06:04;;;;;;;23.58;11.57;;;0.00;78.90;;;;;;5057895;28;20044;-67
2022/03/10 05:08:29;;;;;;;19.00;10.15;;;-0.10;78.70;;;;;;5060612;28;20070;-68
2022/03/10 05:10:55;;;;;;;23.42;11.13;;;0.00;78.80;;;;;;5028764;28;20522;-68
2022/03/10 05:13:21;;;;;;;22.60;11.25;;;0.00;78.60;;;;;;5057944;28;20037;-68
2022/03/10 05:15:47;;;;;;;25.35;11.27;;;-0.10;78.70;;;;;;5064159;28;20071;-68
2022/03/10 05:18:12;;;;;;;20.23;10.93;;;-0.10;78.70;;;;;;5054627;28;20060;-68
2022/03/10 05:20:38;;;;;;;19.25;10.63;;;0.00;78.70;;;;;;5049191;28;20411;-68
2022/03/10 05:23:04;;;;;;;24.15;10.57;;;-0.10;78.70;;;;;;5036809;28;20049;-68
2022/03/10 05:25:38;;;;;;;18.48;10.43;;;0.00;78.50;;;;;;5056279;28;20079;-68
2022/03/10 05:28:07;;;;;;;23.48;10.30;;;-0.10;78.50;;;;;;5032107;28;20045;-68
2022/03/10 05:30:33;;;;;;;22.80;10.27;;;-0.20;78.70;;;;;;5056866;28;20354;-68
2022/03/10 05:32:58;;;;;;;19.85;10.50;;;-0.20;78.60;;;;;;5049429;28;20048;-68
2022/03/10 05:35:26;;;;;;;19.48;10.57;;;-0.20;79.00;;;;;;5030922;28;20095;-68
2022/03/10 05:37:52;;;;;;;20.58;10.85;;;-0.20;78.90;;;;;;5052796;28;20033;-68
2022/03/10 05:40:20;;;;;;;20.98;10.95;;;-0.20;79.00;;;;;;5032786;28;20041;-68
2022/03/10 05:42:46;;;;;;;21.88;10.85;;;-0.30;79.10;;;;;;5046058;28;20094;-68
2022/03/10 05:45:13;;;;;;;21.15;10.73;;;-0.40;79.10;;;;;;5036521;28;20118;-68
2022/03/10 05:47:39;;;;;;;19.77;10.45;;;-0.30;79.60;;;;;;5049217;28;20072;-68
2022/03/10 05:50:09;;;;;;;28.02;12.18;;;-0.40;79.20;;;;;;5058074;28;20413;-68
2022/03/10 05:52:36;;;;;;;21.83;11.82;;;-0.40;80.00;;;;;;5061219;28;20036;-68
2022/03/10 05:55:02;;;;;;;18.02;10.45;;;-0.30;79.40;;;;;;5052973;28;20029;-68
2022/03/10 05:57:27;;;;;;;21.92;10.27;;;-0.30;79.20;;;;;;5056981;28;20041;-68
2022/03/10 05:59:53;;;;;;;22.92;10.93;;;-0.20;79.00;;;;;;5053980;28;20032;-68
2022/03/10 06:02:19;;;;;;;19.13;10.20;;;-0.20;79.00;;;;;;5054880;28;20508;-67
2022/03/10 06:04:45;;;;;;;19.10;11.63;;;-0.10;78.80;;;;;;5056561;28;20048;-68
2022/03/10 06:07:11;;;;;;;20.70;10.25;;;-0.10;78.50;;;;;;5034269;28;20099;-68
2022/03/10 06:09:37;;;;;;;22.50;10.65;;;0.00;78.50;;;;;;5054568;28;20036;-68
2022/03/10 06:12:03;;;;;;;21.05;9.75;;;0.00;78.30;;;;;;5054410;28;20033;-67
2022/03/10 06:14:29;;;;;;;21.10;10.23;;;0.00;78.40;;;;;;5053216;28;20044;-67
2022/03/10 06:16:54;;;;;;;22.85;10.82;;;0.10;78.20;;;;;;5047141;28;20087;-67
2022/03/10 06:19:20;;;;;;;21.25;9.90;;;0.10;78.00;;;;;;5043992;28;20080;-68
2022/03/10 06:21:47;;;;;;;24.48;10.63;;;0.20;77.90;;;;;;5053116;28;20048;-68
2022/03/10 06:24:12;;;;;;;25.98;11.38;;;0.20;77.90;;;;;;5049174;28;20189;-68
2022/03/10 06:26:38;;;;;;;22.13;10.27;;;0.20;77.90;;;;;;5049183;28;20108;-68
2022/03/10 06:29:06;;;;;;;18.75;10.48;;;0.30;77.80;;;;;;5054403;28;20397;-68
2022/03/10 06:31:32;;;;;;;22.52;10.25;;;0.40;77.60;;;;;;5049941;28;20045;-67
2022/03/10 06:33:58;;;;;;;21.08;10.65;;;0.50;77.30;;;;;;5051543;28;20033;-68
2022/03/10 06:36:24;;;;;;;22.52;10.60;;;0.50;77.20;;;;;;5058821;28;20033;-68
2022/03/10 06:38:50;;;;;;;21.50;10.60;;;0.60;77.10;;;;;;5057462;28;20045;-67
2022/03/10 06:41:15;;;;;;;21.40;10.57;;;0.70;77.20;;;;;;5040473;28;20070;-68
2022/03/10 06:43:41;;;;;;;20.25;11.45;;;0.80;77.00;;;;;;5052638;28;20109;-68
2022/03/10 06:46:07;;;;;;;23.35;11.35;;;1.00;77.20;;;;;;5057641;28;20047;-67
2022/03/10 06:48:33;;;;;;;21.15;10.63;;;1.20;77.00;;;;;;5063979;28;20484;-68
2022/03/10 06:50:58;;;;;;;18.50;10.40;;;1.30;76.90;;;;;;5059351;28;20040;-68
2022/03/10 06:53:24;;;;;;;21.95;11.60;;;1.50;76.40;;;;;;5056546;28;20531;-68
2022/03/10 06:55:49;;;;;;;22.67;10.82;;;1.60;76.30;;;;;;5062940;28;20528;-67
2022/03/10 06:58:15;;;;;;;23.63;11.32;;;1.70;76.00;;;;;;5053401;28;20123;-68
2022/03/10 07:00:40;;;;;;;19.98;10.45;;;1.90;75.40;;;;;;5044657;28;20067;-68
2022/03/10 07:03:06;;;;;;;20.08;10.55;;;1.90;74.80;;;;;;5055438;28;20041;-72
2022/03/10 07:05:32;;;;;;;19.35;11.07;;;2.10;74.70;;;;;;5061775;28;20106;-67
2022/03/10 07:07:57;;;;;;;19.48;11.18;;;2.30;74.20;;;;;;5055520;28;20044;-68
2022/03/10 07:10:23;;;;;;;20.00;10.60;;;2.50;73.80;;;;;;5066930;28;20028;-68
2022/03/10 07:12:49;;;;;;;23.52;12.68;;;2.70;72.50;;;;;;5060170;28;20495;-68
2022/03/10 07:15:14;;;;;;;20.38;11.73;;;2.90;72.70;;;;;;5054462;28;20076;-69
2022/03/10 07:17:41;;;;;;;20.17;11.43;;;3.20;72.30;;;;;;5062883;28;20421;-68
2022/03/10 07:20:08;;;;;;;21.38;11.63;;;3.50;72.10;;;;;;5054666;28;20137;-68
2022/03/10 07:22:35;;;;;;;19.15;11.65;;;3.70;72.00;;;;;;5057117;28;20457;-69
2022/03/10 07:25:01;;;;;;;20.65;12.40;;;4.00;71.40;;;;;;5041668;28;20036;-68
2022/03/10 07:27:26;;;;;;;21.98;12.50;;;4.20;70.70;;;;;;5052448;28;20036;-68
2022/03/10 07:29:52;;;;;;;20.25;12.52;;;4.40;69.70;;;;;;5053312;28;20040;-67
2022/03/10 07:32:18;;;;;;;21.55;12.68;;;4.60;69.10;;;;;;5070773;28;20055;-68
2022/03/10 07:34:47;;;;;;;20.45;11.75;;;4.80;68.50;;;;;;5051428;28;20078;-68
2022/03/10 07:37:14;;;;;;;19.20;11.75;;;5.00;67.70;;;;;;5065869;28;20036;-67
2022/03/10 07:39:39;;;;;;;24.90;13.48;;;5.20;66.90;;;;;;5055927;28;20549;-68
2022/03/10 07:42:05;;;;;;;20.38;12.55;;;5.50;67.40;;;;;;5051265;28;20131;-69
2022/03/10 07:44:31;;;;;;;19.52;12.10;;;5.80;66.90;;;;;;5047778;28;20477;-69
2022/03/10 07:46:56;;;;;;;21.20;13.02;;;5.90;66.60;;;;;;5035176;28;20485;-68
2022/03/10 07:49:22;;;;;;;23.70;12.65;;;5.90;66.20;;;;;;5043567;28;20140;-69
2022/03/10 07:51:48;;;;;;;22.45;12.57;;;5.80;65.80;;;;;;5068495;28;20192;-68
2022/03/10 07:54:13;;;;;;;23.92;12.52;;;5.70;65.20;;;;;;5069193;28;20028;-69
2022/03/10 07:56:39;;;;;;;20.15;12.65;;;5.50;65.20;;;;;;5054257;28;20037;-69
2022/03/10 07:59:05;;;;;;;20.45;12.13;;;5.50;66.10;;;;;;5071348;28;20041;-68
2022/03/10 08:01:31;;;;;;;20.33;13.23;;;5.50;66.20;;;;;;5048608;28;20556;-69
2022/03/10 08:03:57;;;;;;;20.88;12.55;;;5.50;65.00;;;;;;5034320;28;20559;-68
2022/03/10 08:06:24;;;;;;;21.77;12.77;;;5.70;65.60;;;;;;5051391;28;20041;-69
2022/03/10 08:08:50;;;;;;;22.00;12.10;;;5.90;64.30;;;;;;5032050;28;20141;-69
2022/03/10 08:11:15;;;;;;;20.77;12.90;;;6.20;63.60;;;;;;5033701;28;20037;-67
2022/03/10 08:13:41;;;;;;;20.55;12.52;;;6.30;61.50;;;;;;5051013;28;20037;-69
2022/03/10 08:16:06;;;;;;;21.40;13.07;;;6.60;62.00;;;;;;5059571;28;20041;-68
2022/03/10 08:18:32;;;;;;;21.80;12.75;;;6.70;61.60;;;;;;5053780;28;20044;-68
2022/03/10 08:20:59;;;;;;;20.60;12.05;;;6.60;60.60;;;;;;5053876;28;20131;-68
2022/03/10 08:23:26;;;;;;;21.80;12.73;;;6.60;61.40;;;;;;5068040;28;20040;-66
2022/03/10 08:25:52;;;;;;;21.92;12.77;;;6.50;61.80;;;;;;5070508;28;20055;-68
2022/03/10 08:28:17;;;;;;;22.33;12.82;;;6.40;61.80;;;;;;5048549;28;20040;-68
2022/03/10 08:30:43;;;;;;;18.42;12.05;;;6.30;62.30;;;;;;5055850;28;20507;-67
2022/03/10 08:33:09;;;;;;;21.60;12.75;;;6.20;62.00;;;;;;5069970;28;20119;-68
2022/03/10 08:35:35;;;;;;;20.63;12.60;;;6.30;61.80;;;;;;5057207;28;20067;-67
2022/03/10 08:38:00;;;;;;;23.75;12.88;;;6.30;62.50;;;;;;5048063;28;20036;-68
2022/03/10 08:40:28;;;;;;;20.48;12.45;;;6.30;62.10;;;;;;5049247;28;20495;-67
2022/03/10 08:42:54;;;;;;;18.50;11.45;;;6.30;62.20;;;;;;5036047;28;20048;-67
2022/03/10 08:45:20;;;;;;;25.65;12.68;;;6.30;61.10;;;;;;5050079;28;20063;-67
2022/03/10 08:47:46;;;;;;;21.02;12.27;;;6.30;61.30;;;;;;5053338;28;20044;-67
2022/03/10 08:50:12;;;;;;;19.38;12.02;;;6.40;61.60;;;;;;5062906;28;20059;-67
2022/03/10 08:52:38;;;;;;;19.67;11.57;;;6.50;62.30;;;;;;5055569;28;20536;-65
2022/03/10 08:55:05;;;;;;;19.77;12.43;;;6.60;61.80;;;;;;5065372;28;20040;-67
2022/03/10 08:57:32;;;;;;;21.88;13.25;;;6.80;61.70;;;;;;5058080;28;20136;-68
2022/03/10 08:59:58;;;;;;;22.58;11.50;;;6.90;62.00;;;;;;5064381;28;20042;-68
2022/03/10 09:02:23;;;;;;;21.48;12.25;;;7.10;60.10;;;;;;5048442;28;20036;-67
2022/03/10 09:04:49;;;;;;;20.02;11.80;;;7.20;60.40;;;;;;5036398;28;20044;-67
2022/03/10 09:07:15;;;;;;;19.75;11.30;;;7.40;60.80;;;;;;5047416;28;20397;-67
2022/03/10 09:09:40;;;;;;;22.58;11.52;;;7.50;60.30;;;;;;5032323;28;20143;-68
2022/03/10 09:12:06;;;;;;;21.27;12.07;;;7.50;60.20;;;;;;5053134;28;20055;-68
2022/03/10 09:14:32;;;;;;;19.63;12.00;;;7.50;60.40;;;;;;5066171;28;20425;-67
2022/03/10 09:16:57;;;;;;;23.30;12.20;;;7.60;61.20;;;;;;5054535;28;20040;-67
2022/03/10 09:19:23;;;;;;;21.67;11.52;;;7.60;60.30;;;;;;5050346;28;20056;-67
2022/03/10 09:21:49;;;;;;;20.42;11.80;;;7.70;60.60;;;;;;5065599;28;20048;-67
2022/03/10 09:24:14;;;;;;;23.05;13.10;;;7.80;60.70;;;;;;5061791;28;20486;-68
2022/03/10 09:26:40;;;;;;;19.95;11.25;;;8.00;60.50;;;;;;5035867;28;20051;-68
2022/03/10 09:29:05;;;;;;;20.35;11.80;;;8.00;59.70;;;;;;5049024;28;20048;-69
2022/03/10 09:31:32;;;;;;;19.08;11.82;;;8.10;60.70;;;;;;5036147;28;20072;-69
2022/03/10 09:33:58;;;;;;;22.95;13.30;;;8.20;58.90;;;;;;5048341;28;20087;-72
2022/03/10 09:36:26;;;;;;;21.02;10.68;;;8.30;58.70;;;;;;5049518;28;20040;-67
2022/03/10 09:38:52;;;;;;;21.35;12.10;;;8.30;57.20;;;;;;5045768;28;20044;-68
2022/03/10 09:41:18;;;;;;;20.67;11.68;;;8.40;56.90;;;;;;5051169;28;20068;-68
2022/03/10 09:43:43;;;;;;;19.38;11.40;;;8.40;57.50;;;;;;5048852;28;20373;-67
2022/03/10 09:46:09;;;;;;;20.60;11.15;;;8.40;56.60;;;;;;5046646;28;20569;-67
2022/03/10 09:48:36;;;;;;;22.85;11.52;;;8.50;56.40;;;;;;5068247;28;20040;-67
2022/03/10 09:51:02;;;;;;;20.67;11.20;;;8.60;56.30;;;;;;5052962;28;20036;-68
2022/03/10 09:53:30;;;;;;;19.98;11.57;;;8.60;55.20;;;;;;5045946;28;20037;-68
2022/03/10 09:55:56;;;;;;;21.60;11.55;;;8.60;54.90;;;;;;5050090;28;20128;-66
2022/03/10 09:58:22;;;;;;;22.88;11.93;;;8.80;55.50;;;;;;5049058;28;20536;-67
2022/03/10 10:00:47;;;;;;;19.25;11.43;;;8.90;55.60;;;;;;5050445;28;20048;-66
2022/03/10 10:03:13;;;;;;;22.40;11.98;;;9.00;55.80;;;;;;5057348;28;20036;-67
2022/03/10 10:05:40;;;;;;;20.70;11.82;;;9.10;56.40;;;;;;5056961;28;20036;-67
2022/03/10 10:08:17;;;;;;;17.40;11.35;;;9.20;55.60;;;;;;5056259;28;20041;-67
2022/03/10 10:10:48;;;;;;;19.23;11.73;;;9.30;55.90;;;;;;5052127;28;20131;-68
2022/03/10 10:13:28;;;;;;;21.65;11.48;;;9.50;55.30;;;;;;5057173;28;20496;-68
2022/03/10 10:15:56;;;;;;;20.13;11.73;;;9.60;54.60;;;;;;5060284;28;20033;-70
2022/03/10 10:18:22;;;;;;;17.13;11.20;;;9.60;54.70;;;;;;5051061;28;20048;-67
2022/03/10 10:20:50;;;;;;;18.80;11.75;;;9.70;54.00;;;;;;5052432;28;20916;-67
2022/03/10 10:23:18;;;;;;;18.95;11.48;;;9.80;53.90;;;;;;5058277;28;20473;-66
2022/03/10 10:25:48;;;;;;;20.13;11.18;;;9.90;53.00;;;;;;5065433;28;20032;-67
2022/03/10 10:28:28;;;;;;;19.08;11.98;;;10.00;53.00;;;;;;5071677;28;20452;-67
2022/03/10 10:30:56;;;;;;;20.08;11.55;;;10.10;52.20;;;;;;5041895;28;20036;-66
2022/03/10 10:33:22;;;;;;;17.85;10.90;;;10.20;51.40;;;;;;5063115;28;20083;-67
2022/03/10 10:35:48;;;;;;;17.77;11.02;;;10.30;51.80;;;;;;5068136;28;20138;-67
2022/03/10 10:38:28;;;;;;;20.13;11.20;;;10.40;51.70;;;;;;5053599;28;20068;-67
2022/03/10 10:41:27;;;;;;;16.58;11.25;;;10.50;51.80;;;;;;5061851;28;20403;-68
2022/03/10 10:44:00;;;;;;;19.33;11.82;;;10.60;50.00;;;;;;5049585;28;20049;-68
2022/03/10 10:46:32;;;;;;;17.55;10.75;;;10.60;50.90;;;;;;5053164;28;20068;-68
2022/03/10 10:49:01;;;;;;;20.30;12.32;;;10.60;49.00;;;;;;5037684;28;20041;-68
2022/03/10 10:51:32;;;;;;;19.60;10.95;;;10.70;50.00;;;;;;5035316;28;20071;-68
2022/03/10 10:54:00;;;;;;;18.35;11.50;;;10.80;50.80;;;;;;5031585;28;20036;-66
2022/03/10 10:56:26;;;;;;;20.30;12.20;;;10.90;50.00;;;;;;5059335;28;20037;-67
2022/03/10 10:58:54;;;;;;;19.73;12.10;;;10.90;50.20;;;;;;5061749;28;20033;-68
2022/03/10 11:01:49;;;;;;;19.60;11.40;;;11.00;49.40;;;;;;5067063;28;20120;-68
2022/03/10 11:04:15;;;;;;;20.83;12.43;;;11.10;48.90;;;;;;5044293;28;20052;-67
2022/03/10 11:06:41;;;;;;;17.70;10.70;;;11.20;49.40;;;;;;5054679;28;20043;-68
2022/03/10 11:09:06;;;;;;;19.02;11.60;;;11.40;50.20;;;;;;5057572;28;20049;-67
2022/03/10 11:11:32;;;;;;;17.67;11.15;;;11.40;48.90;;;;;;5055669;28;20457;-67
2022/03/10 11:13:59;;;;;;;20.30;11.40;;;11.50;49.20;;;;;;5063537;28;20044;-68
2022/03/10 11:16:25;;;;;;;16.73;12.02;;;11.60;48.70;;;;;;5062201;28;20055;-67
2022/03/10 11:18:53;;;;;;;22.45;12.70;;;11.60;48.40;;;;;;5060218;28;20356;-68
2022/03/10 11:21:49;;;;;;;17.48;11.60;;;11.70;48.50;;;;;;5068468;28;20139;-67
2022/03/10 11:24:23;;;;;;;20.05;11.80;;;11.80;46.10;;;;;;5049008;28;20048;-66
2022/03/10 11:27:01;;;;;;;17.63;10.73;;;11.90;46.90;;;;;;5060398;28;20389;-67
2022/03/10 11:29:27;;;;;;;21.75;11.23;;;11.90;45.00;;;;;;5068219;28;20044;-66
2022/03/10 11:31:54;;;;;;;20.90;12.45;;;12.00;47.40;;;;;;5058100;28;20032;-68
2022/03/10 11:34:49;;;;;;;20.65;11.70;;;12.00;46.60;;;;;;5061617;28;20059;-69
2022/03/10 11:37:34;;;;;;;20.00;11.98;;;12.10;44.90;;;;;;5045771;28;20414;-67
2022/03/10 11:40:00;;;;;;;22.75;12.25;;;12.10;43.70;;;;;;5049919;28;20087;-67
2022/03/10 11:42:28;;;;;;;20.75;11.70;;;12.10;44.20;;;;;;5054556;28;20044;-69
2022/03/10 11:45:20;;;;;;;22.08;12.25;;;12.20;44.50;;;;;;5050944;28;20036;-67
2022/03/10 11:47:48;;;;;;;22.80;12.38;;;12.30;44.40;;;;;;5059251;28;20032;-66
2022/03/10 11:50:23;;;;;;;19.63;11.50;;;12.40;45.00;;;;;;5060422;28;20041;-68
2022/03/10 11:53:03;;;;;;;20.60;12.32;;;12.40;43.80;;;;;;5071112;28;20036;-67
2022/03/10 11:55:51;;;;;;;18.60;12.32;;;12.60;45.30;;;;;;5068447;28;20068;-67
2022/03/10 11:58:29;;;;;;;20.50;12.85;;;12.70;43.00;;;;;;5049936;28;20029;-71
2022/03/10 12:00:57;;;;;;;21.35;11.80;;;12.70;42.40;;;;;;5050043;28;20040;-66
2022/03/10 12:03:36;;;;;;;24.52;13.77;;;12.80;42.50;;;;;;5049459;28;20044;-68
2022/03/10 12:06:03;;;;;;;23.20;13.37;;;12.90;41.10;;;;;;5050766;28;20472;-69
2022/03/10 12:08:35;;;;;;;19.77;11.25;;;13.00;41.30;;;;;;5047268;28;20032;-69
2022/03/10 12:11:03;;;;;;;21.30;11.75;;;13.00;40.50;;;;;;5049036;28;20040;-72
2022/03/10 12:13:28;;;;;;;23.27;13.32;;;13.10;40.30;;;;;;5061599;28;20048;-66
2022/03/10 12:15:55;;;;;;;20.20;11.80;;;13.10;40.50;;;;;;5043548;28;20045;-67
2022/03/10 12:18:24;;;;;;;21.90;12.57;;;13.20;40.60;;;;;;5055502;28;20102;-70
2022/03/10 12:20:55;;;;;;;21.75;12.57;;;13.30;41.10;;;;;;5062628;28;20060;-67
2022/03/10 12:23:23;;;;;;;21.80;12.43;;;13.40;41.40;;;;;;5047424;28;20037;-67
2022/03/10 12:26:01;;;;;;;25.38;13.82;;;13.50;41.50;;;;;;5057801;28;20048;-69
2022/03/10 12:28:31;;;;;;;21.05;12.68;;;13.50;40.80;;;;;;5022073;28;20072;-68
2022/03/10 12:31:18;;;;;;;22.52;12.35;;;13.50;40.50;;;;;;5044861;28;20069;-68
2022/03/10 12:33:49;;;;;;;21.83;12.68;;;13.50;38.90;;;;;;5062582;28;20123;-67
2022/03/10 12:36:27;;;;;;;22.20;12.55;;;13.60;40.90;;;;;;5051481;28;20037;-69